Time;durP1;ratioP1;P1;durP2;ratioP2;P2;SDS_P1;SDS_P2;PMS_P1;PMS_P2;Temp;Humidity;BMP_temperature;BMP_pressure;BME280_temperature;BME280_humidity;BME280_pressure;Samples;Min_cycle;Max_cycle;Signal;HPM_P1;HPM_P2
2023/09/19 00:01:45;;;;;;;3.97;3.15;;;;;;;17.01;98.25;64755.63;5050254;28;20256;-52
2023/09/19 00:04:12;;;;;;;4.45;2.92;;;;;;;17.01;98.50;64756.16;5050065;28;20205;-52
2023/09/19 00:06:39;;;;;;;3.72;3.20;;;;;;;16.89;98.94;64742.41;5049955;28;20313;-53
2023/09/19 00:09:10;;;;;;;4.38;3.70;;;;;;;17.08;97.19;64765.88;5050107;28;20189;-59
2023/09/19 00:11:35;;;;;;;3.58;3.00;;;;;;;17.05;97.86;64763.13;5050021;28;20218;-52
2023/09/19 00:14:01;;;;;;;3.67;3.13;;;;;;;16.93;98.83;64744.28;5049901;28;20181;-51
2023/09/19 00:16:27;;;;;;;5.88;3.30;;;;;;;17.01;98.65;64758.19;5049640;28;20213;-51
2023/09/19 00:18:52;;;;;;;7.47;3.55;;;;;;;16.88;99.97;64738.75;5050079;28;20197;-51
2023/09/19 00:21:19;;;;;;;3.55;3.25;;;;;;;16.93;99.90;64747.34;5031380;28;20899;-52
2023/09/19 00:23:45;;;;;;;5.43;3.58;;;;;;;16.88;99.09;64743.84;5047977;28;20236;-58
2023/09/19 00:26:10;;;;;;;5.03;3.42;;;;;;;16.88;100.00;64741.84;5048956;28;20660;-51
2023/09/19 00:28:36;;;;;;;5.55;3.35;;;;;;;16.77;100.00;64730.28;5030920;28;20209;-53
2023/09/19 00:31:02;;;;;;;6.85;3.40;;;;;;;16.77;100.00;64732.28;5048748;28;20714;-52
2023/09/19 00:33:31;;;;;;;4.30;3.30;;;;;;;16.71;100.00;64721.13;5052853;28;20243;-51
2023/09/19 00:35:57;;;;;;;4.80;3.08;;;;;;;16.78;100.00;64733.94;5053351;28;20702;-51
2023/09/19 00:38:26;;;;;;;5.32;3.35;;;;;;;16.64;100.00;64717.97;5053265;28;20276;-51
2023/09/19 00:40:54;;;;;;;4.03;3.40;;;;;;;16.66;100.00;64720.19;5052933;28;20209;-58
2023/09/19 00:43:24;;;;;;;4.47;3.28;;;;;;;16.65;100.00;64716.53;5053014;28;20201;-50
2023/09/19 00:45:53;;;;;;;6.18;3.22;;;;;;;16.76;100.00;64729.19;5034799;28;20217;-51
2023/09/19 00:48:24;;;;;;;6.47;3.10;;;;;;;16.63;100.00;64714.88;5053138;28;20205;-52
2023/09/19 00:50:50;;;;;;;3.90;3.60;;;;;;;16.69;100.00;64721.47;5053284;28;20319;-52
2023/09/19 00:53:22;;;;;;;5.53;3.72;;;;;;;16.61;100.00;64712.66;5052906;28;20206;-52
2023/09/19 00:55:49;;;;;;;5.00;3.72;;;;;;;16.42;100.00;64693.72;5052896;28;20305;-52
2023/09/19 00:58:18;;;;;;;5.70;3.22;;;;;;;16.30;100.00;64678.50;5052805;28;20205;-55
2023/09/19 01:00:44;;;;;;;3.92;3.53;;;;;;;16.27;100.00;64677.75;5034939;28;20209;-52
2023/09/19 01:03:13;;;;;;;3.50;3.20;;;;;;;16.43;100.00;64692.84;5052509;28;20221;-51
2023/09/19 01:05:39;;;;;;;5.47;3.92;;;;;;;16.44;100.00;64695.94;5034379;28;20198;-52
2023/09/19 01:08:06;;;;;;;5.78;3.70;;;;;;;16.35;100.00;64684.03;5052705;28;20585;-52
2023/09/19 01:10:33;;;;;;;5.22;3.47;;;;;;;16.41;100.00;64690.06;5034719;28;20209;-51
2023/09/19 01:13:14;;;;;;;6.63;3.65;;;;;;;16.49;100.00;64698.91;5053047;28;20292;-52
2023/09/19 01:16:18;;;;;;;8.52;3.85;;;;;;;16.41;100.00;64690.06;5052666;28;20201;-52
2023/09/19 01:18:55;;;;;;;6.97;3.70;;;;;;;16.41;100.00;64690.06;5037661;28;20209;-51
2023/09/19 01:21:30;;;;;;;5.43;3.50;;;;;;;16.63;100.00;64714.31;5052769;28;20205;-52
2023/09/19 01:24:14;;;;;;;5.22;3.80;;;;;;;16.73;100.00;64725.88;5052681;28;20211;-51
2023/09/19 01:26:55;;;;;;;5.07;3.67;;;;;;;16.37;100.00;64685.69;5052638;28;20281;-51
2023/09/19 01:29:38;;;;;;;6.57;3.63;;;;;;;16.22;100.00;64669.72;5052630;28;20709;-51
2023/09/19 01:32:06;;;;;;;4.45;3.90;;;;;;;16.30;100.00;64680.53;5052914;28;20296;-52
2023/09/19 01:35:06;;;;;;;4.47;3.58;;;;;;;16.27;100.00;64675.22;5052558;28;20278;-51
2023/09/19 01:37:31;;;;;;;7.63;4.30;;;;;;;16.26;100.00;64671.03;5009568;28;20228;-51
2023/09/19 01:40:19;;;;;;;5.20;3.67;;;;;;;16.31;100.00;64679.06;5052344;28;20213;-52
2023/09/19 01:42:55;;;;;;;4.53;3.45;;;;;;;16.15;100.00;64662.00;5052039;28;20252;-52
2023/09/19 01:45:27;;;;;;;4.50;3.63;;;;;;;15.94;100.00;64642.00;5052441;28;20201;-52
2023/09/19 01:47:58;;;;;;;4.18;3.63;;;;;;;16.15;100.00;64662.00;5051995;28;20217;-52
2023/09/19 01:50:32;;;;;;;4.70;3.72;;;;;;;16.24;100.00;64671.91;5052320;28;20197;-51
2023/09/19 01:53:05;;;;;;;4.85;3.90;;;;;;;16.12;100.00;64658.69;5052051;28;20211;-52
2023/09/19 01:55:40;;;;;;;5.30;4.00;;;;;;;16.22;100.00;64669.72;5052206;28;20197;-51
2023/09/19 01:58:19;;;;;;;6.93;4.43;;;;;;;16.20;100.00;64670.06;5034411;28;20216;-51
2023/09/19 02:00:51;;;;;;;5.20;4.30;;;;;;;16.08;100.00;64654.31;5034469;28;20620;-52
2023/09/19 02:03:22;;;;;;;9.73;5.03;;;;;;;16.12;100.00;64661.25;5051801;28;20226;-51
2023/09/19 02:05:53;;;;;;;7.80;3.90;;;;;;;16.22;100.00;64669.19;5052099;28;20236;-52
2023/09/19 02:08:20;;;;;;;5.13;3.92;;;;;;;16.00;100.00;64647.50;5051942;28;20202;-51
2023/09/19 02:10:49;;;;;;;8.30;5.80;;;;;;;15.91;100.00;64635.59;5051914;28;20292;-51
2023/09/19 02:13:19;;;;;;;6.35;3.80;;;;;;;16.20;100.00;64666.97;5052037;28;20289;-50
2023/09/19 02:15:46;;;;;;;8.63;3.60;;;;;;;16.22;100.00;64669.72;5051967;28;20209;-52
2023/09/19 02:18:12;;;;;;;5.35;4.50;;;;;;;16.14;100.00;64666.00;5051637;28;20679;-51
2023/09/19 02:20:39;;;;;;;8.00;5.05;;;;;;;16.13;100.00;64662.34;5051941;28;20201;-57
2023/09/19 02:23:05;;;;;;;5.50;4.80;;;;;;;16.07;100.00;64653.22;5033633;28;20221;-52
2023/09/19 02:25:32;;;;;;;6.32;4.28;;;;;;;16.13;100.00;64662.34;5051475;28;20288;-51
2023/09/19 02:27:58;;;;;;;4.53;3.70;;;;;;;16.07;100.00;64655.19;5051715;28;20244;-52
2023/09/19 02:30:32;;;;;;;6.13;3.92;;;;;;;15.98;100.00;64641.31;5051449;28;20197;-52
2023/09/19 02:32:57;;;;;;;7.47;5.07;;;;;;;15.87;100.00;64631.19;5051702;28;20225;-52
2023/09/19 02:35:25;;;;;;;8.30;4.82;;;;;;;15.81;100.00;64625.16;5033568;28;20566;-51
2023/09/19 02:37:50;;;;;;;5.22;4.10;;;;;;;15.89;100.00;64633.97;5051197;28;20221;-51
2023/09/19 02:40:21;;;;;;;4.38;3.97;;;;;;;15.94;100.00;64638.91;5033402;28;20196;-52
2023/09/19 02:42:49;;;;;;;5.78;4.03;;;;;;;15.95;100.00;64640.56;5051785;28;20216;-52
2023/09/19 02:45:20;;;;;;;4.78;3.90;;;;;;;15.85;100.00;64629.56;5050012;28;20240;-51
2023/09/19 02:47:47;;;;;;;5.28;4.45;;;;;;;15.83;100.00;64627.34;5051244;28;20237;-52
2023/09/19 02:50:16;;;;;;;8.27;5.00;;;;;;;16.14;100.00;64662.91;5051302;28;20263;-51
2023/09/19 02:52:49;;;;;;;8.55;4.88;;;;;;;16.02;100.00;64647.69;5051324;28;20209;-51
2023/09/19 02:55:19;;;;;;;7.38;4.28;;;;;;;15.84;100.00;64628.44;5050671;28;20263;-51
2023/09/19 02:57:54;;;;;;;6.32;4.10;;;;;;;15.71;100.00;64614.16;5051121;28;20216;-52
2023/09/19 03:00:21;;;;;;;5.20;3.63;;;;;;;15.78;100.00;64621.28;5050902;28;20197;-52
2023/09/19 03:02:55;;;;;;;6.78;4.30;;;;;;;15.85;100.00;64631.53;5033407;28;20534;-52
2023/09/19 03:05:26;;;;;;;7.97;3.85;;;;;;;15.79;100.00;64624.94;5033058;28;20209;-52
2023/09/19 03:07:52;;;;;;;5.55;4.07;;;;;;;15.78;100.00;64624.38;5050827;28;20251;-51
2023/09/19 03:10:22;;;;;;;7.55;4.75;;;;;;;15.84;100.00;64627.88;5051010;28;20197;-52
2023/09/19 03:12:48;;;;;;;8.60;5.32;;;;;;;15.94;100.00;64636.34;5050692;28;20220;-52
2023/09/19 03:15:15;;;;;;;6.35;4.45;;;;;;;16.11;100.00;64655.06;5050876;28;20212;-52
2023/09/19 03:17:45;;;;;;;8.52;4.15;;;;;;;16.03;100.00;64648.81;5032733;28;20220;-51
2023/09/19 03:20:13;;;;;;;4.97;4.38;;;;;;;15.92;100.00;64636.69;5050708;28;20190;-52
2023/09/19 03:22:39;;;;;;;8.35;5.47;;;;;;;15.66;100.00;64608.09;5050664;28;20213;-52
2023/09/19 03:25:07;;;;;;;6.78;4.50;;;;;;;15.78;100.00;64619.31;5050635;28;20216;-52
2023/09/19 03:27:36;;;;;;;7.45;4.35;;;;;;;15.85;100.00;64629.56;5050492;28;20210;-53
2023/09/19 03:30:09;;;;;;;9.68;5.68;;;;;;;15.91;100.00;64636.16;5050710;28;20639;-51
2023/09/19 03:32:36;;;;;;;7.70;4.72;;;;;;;15.77;100.00;64622.75;5050981;28;20266;-56
2023/09/19 03:35:04;;;;;;;9.13;4.95;;;;;;;15.65;100.00;64607.00;5032846;28;20202;-52
2023/09/19 03:37:32;;;;;;;6.97;4.85;;;;;;;15.73;100.00;64613.25;5050716;28;20380;-52
2023/09/19 03:39:57;;;;;;;6.03;4.68;;;;;;;15.70;100.00;64613.03;5050744;28;20254;-52
2023/09/19 03:42:25;;;;;;;7.68;5.93;;;;;;;15.54;100.00;64595.44;5016141;28;20304;-52
2023/09/19 03:44:52;;;;;;;6.93;5.60;;;;;;;15.48;100.00;64593.94;5050448;28;20279;-51
2023/09/19 03:47:18;;;;;;;10.55;4.50;;;;;;;15.56;100.00;64597.09;5032543;28;20282;-51
2023/09/19 03:49:46;;;;;;;11.65;8.43;;;;;;;15.43;100.00;64585.88;5049230;28;20217;-52
2023/09/19 03:52:11;;;;;;;6.18;5.47;;;;;;;15.55;100.00;64596.00;5050586;28;20232;-51
2023/09/19 03:54:37;;;;;;;11.15;7.03;;;;;;;15.51;100.00;64591.59;5050324;28;20648;-51
2023/09/19 03:57:04;;;;;;;8.95;5.43;;;;;;;15.81;100.00;64624.59;5050254;28;20223;-52
2023/09/19 03:59:29;;;;;;;7.40;5.13;;;;;;;15.70;100.00;64615.59;5050437;28;20204;-52
2023/09/19 04:01:57;;;;;;;7.68;4.82;;;;;;;15.62;100.00;64601.69;5050312;28;20213;-53
2023/09/19 04:04:24;;;;;;;10.07;5.00;;;;;;;15.91;100.00;64635.59;5032845;28;20264;-52
2023/09/19 04:06:52;;;;;;;4.97;4.43;;;;;;;15.97;100.00;64644.75;5030962;28;20286;-57
2023/09/19 04:09:18;;;;;;;8.68;5.25;;;;;;;15.79;100.00;64624.94;5050038;28;20211;-53
2023/09/19 04:11:43;;;;;;;7.82;5.53;;;;;;;16.00;100.00;64644.97;5032008;28;20651;-53
2023/09/19 04:14:09;;;;;;;8.27;5.60;;;;;;;15.98;100.00;64643.28;5032333;28;20197;-52
2023/09/19 04:16:35;;;;;;;6.88;5.13;;;;;;;15.69;100.00;64616.47;5049888;28;20213;-52
2023/09/19 04:19:01;;;;;;;10.95;5.15;;;;;;;15.73;100.00;64613.25;5049911;28;20185;-51
2023/09/19 04:21:28;;;;;;;6.95;4.38;;;;;;;15.71;100.00;64611.06;5049775;28;20244;-52
2023/09/19 04:23:53;;;;;;;6.25;4.60;;;;;;;15.52;100.00;64592.69;5049862;28;20229;-59
2023/09/19 04:26:19;;;;;;;7.30;4.40;;;;;;;15.59;100.00;64600.41;5049976;28;20248;-53
2023/09/19 04:28:46;;;;;;;7.90;4.82;;;;;;;15.68;100.00;64612.81;5049847;28;20205;-52
2023/09/19 04:31:13;;;;;;;8.43;4.65;;;;;;;15.79;100.00;64622.41;5049995;28;20259;-52
2023/09/19 04:33:39;;;;;;;7.22;4.95;;;;;;;15.95;100.00;64640.00;5031843;28;20201;-53
2023/09/19 04:36:07;;;;;;;5.72;5.05;;;;;;;15.98;100.00;64645.84;5031886;28;20209;-52
2023/09/19 04:38:33;;;;;;;6.32;4.70;;;;;;;15.79;100.00;64622.97;5049802;28;20205;-54
2023/09/19 04:40:59;;;;;;;8.40;4.50;;;;;;;16.00;100.00;64645.50;5049565;28;20589;-58
2023/09/19 04:43:25;;;;;;;6.85;4.90;;;;;;;15.74;100.00;64619.44;5031676;28;20213;-54
2023/09/19 04:45:51;;;;;;;8.27;4.60;;;;;;;15.62;100.00;64601.16;5049651;28;20716;-52
2023/09/19 04:48:16;;;;;;;5.55;4.30;;;;;;;15.90;100.00;64637.03;5049385;28;20208;-52
2023/09/19 04:50:42;;;;;;;7.47;4.53;;;;;;;16.25;100.00;64675.56;5049496;28;20205;-51
2023/09/19 04:53:08;;;;;;;6.53;4.95;;;;;;;16.31;100.00;64682.16;5048711;28;20205;-52
2023/09/19 04:55:33;;;;;;;7.13;5.28;;;;;;;16.36;100.00;64682.56;5047368;28;20201;-52
2023/09/19 04:57:59;;;;;;;12.38;5.45;;;;;;;16.33;100.00;64684.38;5047357;28;20217;-52
2023/09/19 05:00:27;;;;;;;6.45;4.70;;;;;;;16.50;100.00;64703.09;5047205;28;20197;-50
2023/09/19 05:02:58;;;;;;;7.10;4.78;;;;;;;16.53;100.00;64703.31;5047180;28;20680;-52
2023/09/19 05:05:25;;;;;;;9.73;5.63;;;;;;;16.41;100.00;64690.06;5048533;28;20205;-53
2023/09/19 05:07:53;;;;;;;9.07;5.53;;;;;;;16.55;100.00;64706.06;5049405;28;20248;-52
2023/09/19 05:10:19;;;;;;;11.20;5.30;;;;;;;16.47;100.00;64694.69;5049298;28;20680;-53
2023/09/19 05:12:47;;;;;;;7.20;5.30;;;;;;;16.41;100.00;64693.19;5031263;28;20260;-53
2023/09/19 05:15:17;;;;;;;11.27;5.72;;;;;;;16.40;100.00;64686.44;5031112;28;20289;-53
2023/09/19 05:17:48;;;;;;;9.30;5.57;;;;;;;16.59;100.00;64713.00;5049326;28;20283;-52
2023/09/19 05:20:15;;;;;;;9.95;5.72;;;;;;;16.86;100.00;64739.09;5052688;28;20202;-53
2023/09/19 05:22:42;;;;;;;7.10;5.18;;;;;;;16.74;100.00;64726.44;5034517;28;20213;-52
2023/09/19 05:25:10;;;;;;;8.07;5.35;;;;;;;16.83;100.00;64735.81;5052441;28;20222;-51
2023/09/19 05:27:35;;;;;;;11.80;5.22;;;;;;;17.08;100.00;64763.34;5052324;28;20220;-52
2023/09/19 05:30:01;;;;;;;27.25;4.90;;;;;;;17.00;100.00;64755.06;5052665;28;20590;-53
2023/09/19 05:32:26;;;;;;;11.27;4.95;;;;;;;16.79;100.00;64731.94;5034499;28;20716;-52
2023/09/19 05:34:53;;;;;;;7.05;5.22;;;;;;;16.66;100.00;64718.16;5052619;28;20204;-51
2023/09/19 05:37:19;;;;;;;5.28;4.68;;;;;;;16.88;100.00;64741.31;5052370;28;20224;-52
2023/09/19 05:39:45;;;;;;;5.47;4.45;;;;;;;17.19;100.00;64776.00;5034795;28;20212;-51
2023/09/19 05:42:11;;;;;;;11.80;6.03;;;;;;;17.20;100.00;64776.56;5052769;28;20201;-52
2023/09/19 05:44:37;;;;;;;8.23;5.13;;;;;;;17.13;100.00;64768.84;5052240;28;20228;-52
2023/09/19 05:47:03;;;;;;;5.70;4.45;;;;;;;17.23;100.00;64779.88;5052030;28;20210;-52
2023/09/19 05:49:29;;;;;;;9.23;4.80;;;;;;;17.32;100.00;64792.88;5052025;28;20197;-52
2023/09/19 05:51:57;;;;;;;9.63;4.68;;;;;;;17.45;100.00;64804.09;5052019;28;20271;-54
2023/09/19 05:54:22;;;;;;;6.43;4.35;;;;;;;17.48;100.00;64809.94;5052371;28;20292;-52
2023/09/19 05:56:48;;;;;;;5.85;4.13;;;;;;;17.54;100.00;64814.03;5065849;22;20639;-52
2023/09/19 05:59:15;;;;;;;10.90;5.00;;;;;;;17.51;100.00;64813.28;5071974;28;20203;-52
2023/09/19 06:01:43;;;;;;;5.15;4.53;;;;;;;17.64;100.00;64825.06;5063832;28;20224;-53
2023/09/19 06:04:08;;;;;;;6.05;5.05;;;;;;;17.59;100.00;64820.09;5033930;28;20270;-54
2023/09/19 06:06:38;;;;;;;4.45;4.00;;;;;;;17.69;100.00;64830.56;5052004;28;20221;-53
2023/09/19 06:09:09;;;;;;;7.68;4.32;;;;;;;17.70;100.00;64828.56;5033939;28;20209;-54
2023/09/19 06:11:35;;;;;;;5.43;4.53;;;;;;;17.76;100.00;64838.28;5034107;28;20292;-52
2023/09/19 06:14:02;;;;;;;11.98;5.07;;;;;;;17.87;100.00;64850.41;5052009;28;20659;-52
2023/09/19 06:16:29;;;;;;;5.07;4.07;;;;;;;18.01;100.00;64865.28;5051979;28;20213;-51
2023/09/19 06:18:55;;;;;;;6.38;4.70;;;;;;;17.92;100.00;64855.91;5051691;28;20197;-52
2023/09/19 06:21:23;;;;;;;7.15;5.43;;;;;;;17.93;100.00;64851.94;5051670;28;20205;-60
2023/09/19 06:23:49;;;;;;;7.22;4.63;;;;;;;17.98;100.00;64862.53;5051335;28;20252;-52
2023/09/19 06:26:14;;;;;;;7.45;4.53;;;;;;;18.13;99.58;64881.63;5051787;28;20664;-51
2023/09/19 06:28:40;;;;;;;8.70;6.00;;;;;;;18.16;99.88;64884.41;5051491;28;20707;-53
2023/09/19 06:31:09;;;;;;;7.13;5.28;;;;;;;18.22;100.00;64886.44;5050891;28;20209;-53
2023/09/19 06:33:38;;;;;;;6.78;5.20;;;;;;;18.21;100.00;64885.34;5051652;28;20197;-53
2023/09/19 06:36:06;;;;;;;5.40;4.63;;;;;;;18.25;100.00;64892.31;5051439;28;20312;-52
2023/09/19 06:38:34;;;;;;;10.45;5.63;;;;;;;18.62;97.15;64932.59;5051698;28;20209;-53
2023/09/19 06:41:01;;;;;;;12.07;5.80;;;;;;;18.65;97.69;64933.34;5051348;28;20600;-51
2023/09/19 06:43:30;;;;;;;9.20;5.85;;;;;;;18.69;97.55;64942.31;5051319;28;20233;-53
2023/09/19 06:45:57;;;;;;;11.10;5.40;;;;;;;18.77;96.51;64946.03;5051312;28;20286;-51
2023/09/19 06:48:24;;;;;;;11.88;5.40;;;;;;;18.87;95.53;64960.16;5051602;28;20169;-52
2023/09/19 06:50:50;;;;;;;9.70;5.38;;;;;;;18.79;96.59;64950.78;5033459;28;20270;-53
2023/09/19 06:53:17;;;;;;;8.70;4.97;;;;;;;18.82;96.29;64951.56;5051148;28;20268;-52
2023/09/19 06:55:43;;;;;;;5.35;4.78;;;;;;;18.69;95.62;64942.88;5049925;28;20210;-52
2023/09/19 06:58:11;;;;;;;5.57;4.60;;;;;;;18.49;95.86;64915.16;5051105;28;20201;-52
2023/09/19 07:00:38;;;;;;;9.70;4.85;;;;;;;18.43;98.48;64909.63;5051052;28;20209;-53
2023/09/19 07:03:11;;;;;;;6.25;4.13;;;;;;;18.61;99.36;64928.38;5051046;28;20209;-52
2023/09/19 07:05:38;;;;;;;9.13;5.40;;;;;;;18.84;95.58;64956.31;5051344;28;20350;-56
2023/09/19 07:08:06;;;;;;;8.05;6.13;;;;;;;19.07;93.81;64981.69;5033507;28;20217;-52
2023/09/19 07:10:33;;;;;;;8.57;5.45;;;;;;;18.81;94.79;64953.00;5050927;28;20200;-52
2023/09/19 07:12:59;;;;;;;8.20;6.43;;;;;;;18.91;93.56;64964.03;5050854;28;20656;-51
2023/09/19 07:15:30;;;;;;;10.23;7.43;;;;;;;19.11;92.83;64986.66;5050990;28;20265;-53
2023/09/19 07:17:57;;;;;;;7.32;5.97;;;;;;;19.23;93.32;64997.34;5050980;28;20688;-51
2023/09/19 07:20:29;;;;;;;11.80;7.03;;;;;;;19.41;91.68;65016.69;5051184;28;20227;-51
2023/09/19 07:22:55;;;;;;;8.10;5.95;;;;;;;19.29;92.14;65005.97;5033195;28;20223;-52
2023/09/19 07:25:22;;;;;;;11.70;6.28;;;;;;;19.36;92.20;65016.28;5032861;28;20206;-53
2023/09/19 07:27:48;;;;;;;10.75;6.60;;;;;;;19.51;91.72;65030.31;5050657;28;20738;-50
2023/09/19 07:30:15;;;;;;;8.88;5.88;;;;;;;19.62;90.96;65041.88;5050796;28;20198;-51
2023/09/19 07:32:41;;;;;;;6.97;4.60;;;;;;;19.51;90.51;65030.31;5032752;28;20235;-52
2023/09/19 07:35:08;;;;;;;6.53;4.55;;;;;;;19.49;90.83;65027.53;5050698;28;20587;-51
2023/09/19 07:37:35;;;;;;;6.57;4.28;;;;;;;19.78;87.93;65059.53;5051150;28;20205;-52
2023/09/19 07:40:10;;;;;;;8.45;4.63;;;;;;;20.07;87.98;65091.59;5050488;28;20705;-52
2023/09/19 07:42:38;;;;;;;9.13;5.47;;;;;;;20.00;88.28;65081.84;5050668;28;20742;-52
2023/09/19 07:45:05;;;;;;;6.55;3.90;;;;;;;19.87;87.23;65069.50;5050619;28;20212;-54
2023/09/19 07:47:32;;;;;;;8.55;3.97;;;;;;;19.49;88.88;65025.53;5050935;28;20308;-53
2023/09/19 07:50:00;;;;;;;6.40;4.25;;;;;;;19.84;86.84;65061.63;5050503;28;20202;-51
2023/09/19 07:52:27;;;;;;;9.27;5.03;;;;;;;19.99;86.61;65080.75;5050569;28;20213;-51
2023/09/19 07:54:54;;;;;;;6.55;4.13;;;;;;;19.95;85.98;65078.34;5050345;28;20197;-53
2023/09/19 07:57:21;;;;;;;5.97;4.38;;;;;;;20.05;85.24;65087.38;5050255;28;20346;-53
2023/09/19 07:59:46;;;;;;;6.65;4.85;;;;;;;20.20;82.26;65103.41;5050460;28;20229;-51
2023/09/19 08:02:18;;;;;;;7.15;4.57;;;;;;;19.86;84.48;65065.81;5050720;28;20304;-53
2023/09/19 08:04:46;;;;;;;8.45;4.43;;;;;;;19.89;84.89;65069.69;5050272;28;20644;-52
2023/09/19 08:07:12;;;;;;;9.15;4.78;;;;;;;20.23;84.66;65108.72;5050454;28;20239;-54
2023/09/19 08:09:38;;;;;;;8.02;4.80;;;;;;;20.56;84.80;65142.63;5050215;28;20209;-51
2023/09/19 08:12:07;;;;;;;7.22;4.43;;;;;;;20.63;80.76;65150.91;5050136;28;20700;-53
2023/09/19 08:14:33;;;;;;;7.10;4.30;;;;;;;20.65;80.95;65150.00;5050085;28;20208;-51
2023/09/19 08:17:00;;;;;;;6.45;4.88;;;;;;;20.58;79.24;65144.84;5050269;28;20300;-51
2023/09/19 08:19:31;;;;;;;9.95;4.78;;;;;;;20.48;79.22;65133.81;5050159;28;20337;-52
2023/09/19 08:22:02;;;;;;;8.98;4.97;;;;;;;20.44;80.38;65129.38;5050307;28;20675;-51
2023/09/19 08:24:29;;;;;;;7.75;4.53;;;;;;;20.33;79.54;65119.78;5048648;28;20334;-52
2023/09/19 08:26:56;;;;;;;14.00;5.22;;;;;;;20.41;79.67;65128.63;5049809;28;20278;-52
2023/09/19 08:29:27;;;;;;;6.65;4.47;;;;;;;20.46;79.87;65134.16;5049958;28;20208;-52
2023/09/19 08:31:57;;;;;;;7.20;4.90;;;;;;;20.62;80.04;65149.28;5031969;28;20208;-52
2023/09/19 08:34:26;;;;;;;9.32;4.40;;;;;;;20.72;78.07;65160.88;5049858;28;20201;-54
2023/09/19 08:36:58;;;;;;;6.30;4.55;;;;;;;20.68;80.65;65156.47;5031923;28;20216;-55
2023/09/19 08:39:25;;;;;;;5.50;4.30;;;;;;;20.97;79.74;65187.94;5032566;28;20213;-55
2023/09/19 08:42:01;;;;;;;5.75;4.25;;;;;;;21.20;78.90;65212.84;5031795;28;20248;-55
2023/09/19 08:44:31;;;;;;;5.22;3.97;;;;;;;21.51;77.11;65249.72;5049908;28;20219;-55
2023/09/19 08:47:21;;;;;;;9.88;4.15;;;;;;;21.68;72.93;65268.50;5016213;28;20217;-54
2023/09/19 08:50:14;;;;;;;7.95;4.22;;;;;;;21.61;72.48;65258.75;5032022;28;20300;-55
2023/09/19 08:52:43;;;;;;;8.50;4.07;;;;;;;21.92;73.09;65289.94;5050381;28;20236;-54
2023/09/19 08:55:20;;;;;;;6.50;3.90;;;;;;;22.16;75.49;65318.53;5053279;28;20189;-55
2023/09/19 08:57:49;;;;;;;8.20;4.53;;;;;;;22.32;72.95;65336.78;5053081;28;20212;-55
2023/09/19 09:00:18;;;;;;;6.05;3.85;;;;;;;22.25;68.52;65329.03;5053072;28;20765;-55
2023/09/19 09:02:45;;;;;;;8.38;4.15;;;;;;;22.27;69.44;65331.25;5052871;28;20315;-54
2023/09/19 09:05:12;;;;;;;4.50;3.95;;;;;;;22.40;70.48;65345.63;5053003;28;20225;-56
2023/09/19 09:07:40;;;;;;;9.05;4.00;;;;;;;22.31;68.19;65337.69;5052704;28;20221;-55
2023/09/19 09:10:06;;;;;;;8.65;4.30;;;;;;;22.30;69.35;65334.03;5052949;28;20181;-54
2023/09/19 09:12:36;;;;;;;8.00;4.00;;;;;;;22.23;68.57;65326.28;5052798;28;20308;-55
2023/09/19 09:15:03;;;;;;;6.03;3.75;;;;;;;22.00;71.04;65300.81;5052726;28;20691;-55
2023/09/19 09:17:30;;;;;;;5.85;3.70;;;;;;;21.79;73.24;65282.69;5053160;28;20589;-55
2023/09/19 09:19:56;;;;;;;7.88;4.28;;;;;;;22.15;71.67;65317.41;5052858;28;20675;-54
2023/09/19 09:22:23;;;;;;;5.82;4.20;;;;;;;22.39;70.99;65344.53;5035038;28;20217;-54
2023/09/19 09:24:58;;;;;;;5.35;3.95;;;;;;;22.74;68.83;65382.75;5052027;28;20291;-54
2023/09/19 09:27:24;;;;;;;6.97;4.00;;;;;;;23.06;67.10;65417.63;5050410;28;20231;-58
2023/09/19 09:29:55;;;;;;;6.07;4.15;;;;;;;22.95;66.00;65403.44;5052050;28;20668;-54
2023/09/19 09:32:28;;;;;;;8.68;4.13;;;;;;;22.98;68.81;65408.78;5052544;28;20217;-55
2023/09/19 09:34:59;;;;;;;5.68;3.88;;;;;;;23.20;65.16;65433.72;5052767;28;20170;-54
2023/09/19 09:37:30;;;;;;;6.95;4.13;;;;;;;23.33;66.54;65448.13;5034793;28;20216;-52
2023/09/19 09:42:40;;;;;;;5.13;4.53;;;;;;;23.70;63.49;65488.56;5036953;28;20217;-56
2023/09/19 09:45:37;;;;;;;7.30;4.15;;;;;;;23.85;64.27;65505.22;5052525;28;20225;-56
2023/09/19 09:48:13;;;;;;;6.43;3.78;;;;;;;23.63;64.38;65477.69;5034297;28;20220;-54
2023/09/19 09:50:56;;;;;;;5.05;4.03;;;;;;;23.76;64.25;65492.09;5052495;28;20231;-54
2023/09/19 09:53:32;;;;;;;7.40;3.55;;;;;;;23.08;64.87;65420.41;5052491;28;20209;-54
2023/09/19 09:56:01;;;;;;;7.28;3.83;;;;;;;23.81;63.15;65500.78;5052295;28;20197;-55
2023/09/19 09:58:37;;;;;;;4.03;3.45;;;;;;;23.85;63.26;65502.63;5050897;28;20275;-55
2023/09/19 10:01:16;;;;;;;6.03;3.80;;;;;;;24.30;60.67;65551.97;5035973;28;20197;-54
2023/09/19 10:03:47;;;;;;;8.70;4.32;;;;;;;24.62;59.14;65589.50;5033901;28;20270;-54
2023/09/19 10:09:39;;;;;;;4.55;3.95;;;;;;;24.15;60.31;65535.91;5035791;28;20207;-55
2023/09/19 10:12:08;;;;;;;6.45;4.13;;;;;;;24.24;58.61;65547.88;5036065;28;20220;-55
2023/09/19 10:14:38;;;;;;;8.07;4.10;;;;;;;24.29;59.94;65553.44;5051996;28;20197;-55
2023/09/19 10:17:05;;;;;;;9.23;4.82;;;;;;;24.17;59.88;65540.69;5034033;28;20209;-55
2023/09/19 10:19:46;;;;;;;8.40;4.65;;;;;;;24.17;59.84;65540.13;5033845;28;20201;-55
2023/09/19 10:22:21;;;;;;;7.68;4.35;;;;;;;24.15;63.28;65537.91;5052389;28;20280;-56
2023/09/19 10:24:53;;;;;;;7.10;3.97;;;;;;;24.04;61.37;65525.72;5051741;28;20245;-54
2023/09/19 10:27:21;;;;;;;8.73;4.50;;;;;;;23.87;60.92;65506.88;5051711;28;20209;-55
2023/09/19 10:29:53;;;;;;;8.68;5.97;;;;;;;23.75;60.52;65493.56;5051731;28;20205;-54
2023/09/19 10:32:23;;;;;;;10.68;5.72;;;;;;;23.88;61.91;65505.38;5051369;28;20292;-55
2023/09/19 10:34:49;;;;;;;7.25;4.25;;;;;;;23.95;60.13;65513.72;5051528;28;20213;-55
2023/09/19 10:37:17;;;;;;;5.72;4.05;;;;;;;23.97;61.76;65517.94;5050666;28;20209;-54
2023/09/19 10:39:51;;;;;;;8.77;4.78;;;;;;;24.04;60.10;65523.16;5049448;28;20206;-52
2023/09/19 10:42:19;;;;;;;7.47;4.15;;;;;;;24.17;59.34;65540.69;5049479;28;20233;-54
2023/09/19 10:44:53;;;;;;;4.05;3.58;;;;;;;24.07;59.47;65529.06;5049711;28;20271;-56
2023/09/19 10:47:22;;;;;;;5.13;4.22;;;;;;;24.00;59.92;65521.81;5049684;28;20290;-57
2023/09/19 10:49:48;;;;;;;5.35;4.13;;;;;;;23.75;60.76;65493.56;5049619;28;20545;-55
2023/09/19 10:52:24;;;;;;;7.22;4.07;;;;;;;23.51;62.33;65469.53;5032413;28;20300;-56
2023/09/19 10:54:57;;;;;;;6.07;4.13;;;;;;;23.52;61.89;65468.06;5049999;28;20590;-55
2023/09/19 10:57:27;;;;;;;5.45;4.15;;;;;;;23.41;61.40;65455.88;5033360;28;20227;-55
2023/09/19 11:00:23;;;;;;;10.18;4.05;;;;;;;23.25;61.66;65439.22;5051238;28;20204;-55
2023/09/19 11:03:31;;;;;;;8.30;4.85;;;;;;;23.49;62.66;65467.31;5050992;28;20229;-54
2023/09/19 11:06:17;;;;;;;5.97;3.88;;;;;;;23.32;64.49;65446.47;4970232;28;20725;-55
2023/09/19 11:08:56;;;;;;;6.88;4.03;;;;;;;23.69;64.55;65487.47;5049244;28;20241;-58
2023/09/19 11:11:52;;;;;;;12.13;5.47;;;;;;;23.99;62.56;65517.59;5033324;28;20209;-55
2023/09/19 11:14:24;;;;;;;5.05;4.15;;;;;;;24.13;60.02;65536.25;5033353;28;20213;-54
2023/09/19 11:17:11;;;;;;;5.13;3.65;;;;;;;23.99;59.60;65523.31;5050608;28;20351;-56
2023/09/19 11:22:49;;;;;;;5.88;4.30;;;;;;;23.94;60.30;65514.59;5050873;28;20214;-54
2023/09/19 11:25:34;;;;;;;6.63;4.40;;;;;;;24.14;60.62;65536.81;5050785;28;20721;-56
2023/09/19 11:28:05;;;;;;;6.43;4.20;;;;;;;24.36;59.97;65561.19;5050853;28;20211;-55
2023/09/19 11:30:32;;;;;;;6.35;5.15;;;;;;;24.51;62.58;65575.25;5050927;28;20233;-59
2023/09/19 11:33:46;;;;;;;6.65;4.80;;;;;;;24.45;62.20;65571.19;5050676;28;20279;-54
2023/09/19 11:36:19;;;;;;;7.25;4.00;;;;;;;24.57;59.77;65583.94;5050992;28;20229;-56
2023/09/19 11:38:49;;;;;;;6.28;4.00;;;;;;;24.67;59.40;65595.59;5050857;28;20608;-57
2023/09/19 11:41:28;;;;;;;6.97;4.07;;;;;;;24.55;59.71;65579.13;5050778;28;20301;-57
2023/09/19 11:44:17;;;;;;;5.30;4.68;;;;;;;24.73;58.45;65602.25;5050719;28;20354;-55
2023/09/19 11:46:54;;;;;;;6.00;4.43;;;;;;;24.45;59.30;65571.19;5032791;28;20221;-54
2023/09/19 11:49:33;;;;;;;7.18;4.05;;;;;;;24.53;59.04;65580.06;5050499;28;20258;-55
2023/09/19 11:52:08;;;;;;;6.40;3.55;;;;;;;24.63;57.81;65588.56;5050531;28;20596;-54